createdAt,value
2023-04-13T00:03:25.604Z,94163.53
2023-04-13T00:13:32.536Z,94045.44
2023-04-13T00:23:39.151Z,93939.88
2023-04-13T00:33:45.601Z,93896.25
2023-04-13T00:43:53.929Z,93851.03
2023-04-13T00:54:00.694Z,93820.56
2023-04-13T01:04:07.170Z,93750.16
2023-04-13T01:14:19.732Z,93746.53
2023-04-13T01:24:47.383Z,93721.06
2023-04-13T01:34:53.848Z,93661.41
2023-04-13T01:45:00.328Z,93636.28
2023-04-13T01:55:07.414Z,93601.34
2023-04-13T02:05:13.931Z,93487.84
2023-04-13T02:15:20.471Z,93371.72
2023-04-13T02:25:29.456Z,93287.09
2023-04-13T02:35:40.339Z,93245.22
2023-04-13T02:45:46.793Z,93207.22
2023-04-13T02:55:55.018Z,93196.19
2023-04-13T03:06:02.822Z,93180.84
2023-04-13T03:16:12.683Z,93235.94
2023-04-13T03:26:19.245Z,93296.50
2023-04-13T03:36:26.571Z,93357.50
2023-04-13T03:46:34.462Z,93399.72
2023-04-13T03:56:41.459Z,93483.56
2023-04-13T04:06:48.387Z,93568.81
2023-04-13T04:16:54.876Z,93641.63
2023-04-13T04:27:01.780Z,93695.03
2023-04-13T04:37:19.692Z,93745.94
2023-04-13T04:47:26.337Z,93683.34
2023-04-13T04:57:33.143Z,93763.00
2023-04-13T05:07:39.806Z,93821.88
2023-04-13T05:17:48.207Z,94110.38
2023-04-13T05:27:54.758Z,94309.34
2023-04-13T05:38:02.186Z,94465.59
2023-04-13T05:48:08.710Z,94582.00
2023-04-13T05:58:15.216Z,94710.50
2023-04-13T06:08:23.120Z,94808.09
2023-04-13T06:18:30.103Z,94907.13
2023-04-13T06:28:36.661Z,94974.47
2023-04-13T06:38:43.180Z,95086.06
2023-04-13T06:48:49.826Z,95199.53
2023-04-13T06:59:02.271Z,95339.44
2023-04-13T07:09:09.411Z,95385.03
2023-04-13T07:19:16.503Z,95576.22
2023-04-13T07:29:22.990Z,95685.03
2023-04-13T07:39:29.691Z,95800.69
2023-04-13T07:49:38.810Z,95822.13
2023-04-13T07:59:47.021Z,95983.78
2023-04-13T08:09:54.152Z,96051.19
2023-04-13T08:20:01.023Z,95930.00
2023-04-13T08:30:09.494Z,95549.56
2023-04-13T08:40:16.484Z,95632.66
2023-04-13T08:50:24.182Z,95652.66
2023-04-13T09:00:31.711Z,95747.00
2023-04-13T09:10:38.243Z,95965.78
2023-04-13T09:20:44.977Z,96102.66
2023-04-13T09:30:51.588Z,96379.50
2023-04-13T09:41:00.266Z,96568.50
2023-04-13T09:51:08.731Z,96780.59
2023-04-13T10:01:18.545Z,96889.03
2023-04-13T10:11:25.547Z,96948.56
2023-04-13T10:21:41.352Z,97003.38
2023-04-13T10:31:50.155Z,97004.78
2023-04-13T10:42:07.781Z,97006.09
2023-04-13T10:52:14.672Z,97011.06
2023-04-13T11:02:22.029Z,97004.28
2023-04-13T11:12:28.594Z,97005.03
2023-04-13T11:22:37.092Z,97017.25
2023-04-13T11:32:46.415Z,97013.31
2023-04-13T11:43:00.149Z,97015.34
2023-04-13T11:53:07.098Z,97014.06
2023-04-13T12:13:36.307Z,97018.41
2023-04-13T12:23:55.238Z,97022.50
2023-04-13T12:34:02.331Z,97008.59
2023-04-13T12:44:09.024Z,96985.94
2023-04-13T12:54:16.061Z,96975.22
2023-04-13T13:04:22.525Z,96949.00
2023-04-13T13:14:29.004Z,96895.75
2023-04-13T13:24:35.674Z,96781.84
2023-04-13T13:34:42.802Z,96682.62
2023-04-13T13:44:49.382Z,96564.34
2023-04-13T13:54:56.709Z,96335.19
2023-04-13T14:05:03.185Z,95204.22
2023-04-13T14:15:11.036Z,94575.03
2023-04-13T14:25:17.534Z,94440.88
2023-04-13T15:29:34.197Z,94899.91
2023-04-13T15:39:39.779Z,94899.91
2023-04-13T15:49:46.258Z,94229.91
2023-04-13T15:59:52.719Z,94220.81
2023-04-13T16:09:59.671Z,94217.69
2023-04-13T16:20:15.443Z,94236.97
2023-04-13T16:30:22.261Z,94244.25
2023-04-13T16:40:29.030Z,94180.97
2023-04-13T16:50:35.500Z,94079.19
2023-04-13T17:00:42.028Z,93961.12
2023-04-13T17:10:48.744Z,93818.22
2023-04-13T17:20:56.211Z,93602.12
2023-04-13T17:31:03.202Z,93442.25
2023-04-13T17:41:12.563Z,93331.25
2023-04-13T17:51:19.048Z,93281.13
2023-04-13T18:01:27.101Z,93231.50
2023-04-13T18:11:34.132Z,93230.25
2023-04-13T18:21:41.215Z,93211.19
2023-04-13T18:31:47.728Z,93167.41
2023-04-13T18:41:54.216Z,93112.94
2023-04-13T18:52:00.824Z,93078.41
2023-04-13T19:02:07.524Z,93037.28
2023-04-13T19:12:14.309Z,92992.00
2023-04-13T19:22:21.024Z,92968.91
2023-04-13T19:32:27.779Z,92923.97
2023-04-13T19:42:34.421Z,92840.34
2023-04-13T19:52:42.696Z,92781.94
2023-04-13T20:02:51.101Z,92733.06
2023-04-13T20:12:57.756Z,92665.12
2023-04-13T20:23:04.568Z,92546.72
2023-04-13T20:33:11.156Z,92456.56
2023-04-13T20:43:19.090Z,92296.06
2023-04-13T20:53:26.180Z,92188.00
2023-04-13T21:03:33.231Z,92180.03
2023-04-13T21:13:40.321Z,92105.56
2023-04-13T21:23:47.543Z,92064.13
2023-04-13T21:33:54.011Z,92078.91
2023-04-13T21:44:00.536Z,92075.16
2023-04-13T21:54:07.631Z,92061.47
2023-04-13T22:04:14.424Z,92040.66
2023-04-13T22:14:20.955Z,91965.16
2023-04-13T22:24:27.448Z,91953.34
2023-04-13T22:34:35.883Z,91905.34
2023-04-13T22:44:42.343Z,91785.88
2023-04-13T22:54:49.222Z,91642.75
2023-04-13T23:04:55.812Z,91551.28
2023-04-13T23:15:02.675Z,91534.19
2023-04-13T23:25:09.486Z,91418.59
2023-04-13T23:35:15.977Z,91365.25
2023-04-13T23:45:22.667Z,91359.44
2023-04-13T23:55:29.337Z,91369.50
